createdAt,value
2022-11-20T00:01:25.980Z,100369.63
2022-11-20T00:03:54.695Z,100365.47
2022-11-20T00:06:22.843Z,100350.78
2022-11-20T00:08:50.590Z,100346.94
2022-11-20T00:11:23.253Z,100347.06
2022-11-20T00:13:53.322Z,100331.53
2022-11-20T00:16:23.251Z,100334.13
2022-11-20T00:18:50.553Z,100350.66
2022-11-20T00:21:22.891Z,100354.19
2022-11-20T00:23:51.201Z,100346.16
2022-11-20T00:26:19.986Z,100333.81
2022-11-20T00:28:55.397Z,100349.75
2022-11-20T00:31:23.016Z,100336.28
2022-11-20T00:33:50.344Z,100339.41
2022-11-20T00:36:22.461Z,100342.78
2022-11-20T00:38:53.643Z,100349.19
2022-11-20T00:41:20.953Z,100349.63
2022-11-20T00:43:47.895Z,100353.09
2022-11-20T00:46:15.908Z,100340.84
2022-11-20T00:48:43.203Z,100353.56
2022-11-20T00:51:12.122Z,100341.03
2022-11-20T00:53:38.980Z,100349.31
2022-11-20T00:56:08.809Z,100341.22
2022-11-20T00:58:38.069Z,100339.31
2022-11-20T01:01:06.621Z,100341.28
2022-11-20T01:03:34.748Z,100355.25
2022-11-20T01:06:08.887Z,100362.34
2022-11-20T01:08:36.696Z,100359.97
2022-11-20T01:11:15.533Z,100350.22
2022-11-20T01:13:44.241Z,100355.56
2022-11-20T01:16:20.601Z,100363.22
2022-11-20T01:18:50.224Z,100348.88
2022-11-20T01:21:22.604Z,100343.56
2022-11-20T01:23:50.342Z,100338.41
2022-11-20T01:26:23.382Z,100343.59
2022-11-20T01:28:50.960Z,100344.31
2022-11-20T01:31:23.443Z,100351.44
2022-11-20T01:33:52.620Z,100343.16
2022-11-20T01:36:21.182Z,100340.13
2022-11-20T01:38:48.216Z,100333.59
2022-11-20T01:41:36.714Z,100333.84
2022-11-20T01:44:05.229Z,100319.78
2022-11-20T01:46:34.805Z,100317.84
2022-11-20T01:49:09.026Z,100324.66
2022-11-20T01:51:56.897Z,100333.16
2022-11-20T01:54:31.601Z,100330.44
2022-11-20T01:57:01.709Z,100335.81
2022-11-20T01:59:30.768Z,100331.19
2022-11-20T02:01:58.358Z,100331.25
2022-11-20T02:04:25.912Z,100334.91
2022-11-20T02:07:03.662Z,100335.19
2022-11-20T02:09:30.645Z,100322.47
2022-11-20T02:11:58.805Z,100322.66
2022-11-20T02:14:26.581Z,100322.81
2022-11-20T02:16:55.493Z,100321.47
2022-11-20T02:19:29.447Z,100329.09
2022-11-20T02:22:03.890Z,100320.94
2022-11-20T02:24:31.262Z,100322.41
2022-11-20T02:27:13.434Z,100334.41
2022-11-20T02:29:54.114Z,100329.91
2022-11-20T02:32:22.392Z,100322.00
2022-11-20T02:34:49.547Z,100326.84
2022-11-20T02:37:17.193Z,100323.28
2022-11-20T02:39:47.126Z,100308.31
2022-11-20T02:42:14.314Z,100318.25
2022-11-20T02:44:41.259Z,100317.28
2022-11-20T02:47:08.594Z,100317.44
2022-11-20T02:49:35.785Z,100308.94
2022-11-20T02:52:02.709Z,100299.28
2022-11-20T02:54:29.612Z,100298.09
2022-11-20T02:56:56.512Z,100303.59
2022-11-20T02:59:23.664Z,100311.41
2022-11-20T03:01:50.736Z,100318.22
2022-11-20T03:04:17.689Z,100307.47
2022-11-20T03:06:44.749Z,100312.44
2022-11-20T03:09:11.690Z,100310.78
2022-11-20T03:11:38.562Z,100309.72
2022-11-20T03:14:06.072Z,100303.53
2022-11-20T03:16:33.952Z,100301.72
2022-11-20T03:19:01.261Z,100295.97
2022-11-20T03:21:28.352Z,100299.41
2022-11-20T03:23:55.718Z,100292.88
2022-11-20T03:26:25.224Z,100287.75
2022-11-20T03:28:57.819Z,100288.53
2022-11-20T03:31:27.502Z,100284.31
2022-11-20T03:33:54.602Z,100285.28
2022-11-20T03:36:22.280Z,100287.69
2022-11-20T03:38:50.101Z,100277.34
2022-11-20T03:41:23.060Z,100284.72
2022-11-20T03:43:58.391Z,100270.75
2022-11-20T03:46:26.094Z,100279.06
2022-11-20T03:48:53.320Z,100274.81
2022-11-20T03:51:25.803Z,100273.25
2022-11-20T03:53:55.365Z,100279.41
2022-11-20T03:56:25.640Z,100262.91
2022-11-20T03:58:52.551Z,100267.47
2022-11-20T04:01:24.647Z,100268.72
2022-11-20T04:03:54.244Z,100274.69
2022-11-20T04:06:30.461Z,100264.00
2022-11-20T04:08:58.923Z,100273.81
2022-11-20T04:11:31.552Z,100257.84
2022-11-20T04:14:00.874Z,100254.97
2022-11-20T04:16:30.847Z,100254.94
2022-11-20T04:19:01.886Z,100253.28
2022-11-20T04:21:28.893Z,100251.22
2022-11-20T04:23:56.680Z,100247.81
2022-11-20T04:26:25.580Z,100235.16
2022-11-20T04:28:52.704Z,100238.16
2022-11-20T04:31:23.943Z,100234.53
2022-11-20T04:33:51.232Z,100233.69
2022-11-20T04:36:20.789Z,100234.97
2022-11-20T04:38:51.351Z,100224.75
2022-11-20T04:41:22.729Z,100228.22
2022-11-20T04:43:59.825Z,100236.88
2022-11-20T04:46:28.377Z,100241.25
2022-11-20T04:48:55.658Z,100239.53
2022-11-20T04:51:22.981Z,100235.44
2022-11-20T04:53:50.171Z,100229.09
2022-11-20T04:56:17.473Z,100231.84
2022-11-20T04:58:44.383Z,100240.09
2022-11-20T05:01:17.592Z,100232.16
2022-11-20T05:03:45.264Z,100230.94
2022-11-20T05:06:14.685Z,100236.84
2022-11-20T05:08:42.270Z,100226.69
2022-11-20T05:11:12.181Z,100238.38
2022-11-20T05:13:39.551Z,100240.59
2022-11-20T05:16:10.079Z,100245.22
2022-11-20T05:18:38.154Z,100247.47
2022-11-20T05:21:06.404Z,100237.41
2022-11-20T05:23:34.792Z,100244.47
2022-11-20T05:26:02.860Z,100236.13
2022-11-20T05:28:30.923Z,100235.91
2022-11-20T05:31:04.781Z,100246.38
2022-11-20T05:33:31.693Z,100241.81
2022-11-20T05:36:02.186Z,100251.84
2022-11-20T05:38:29.026Z,100257.81
2022-11-20T05:40:55.915Z,100259.06
2022-11-20T05:43:22.766Z,100272.56
2022-11-20T05:45:56.145Z,100267.13
2022-11-20T05:48:23.102Z,100269.59
2022-11-20T05:50:50.160Z,100265.81
2022-11-20T05:53:17.112Z,100265.00
2022-11-20T05:55:44.050Z,100268.66
2022-11-20T05:58:11.066Z,100262.81
2022-11-20T06:00:38.477Z,100265.81
2022-11-20T06:03:05.503Z,100269.16
2022-11-20T06:05:32.599Z,100277.66
2022-11-20T06:08:01.924Z,100266.41
2022-11-20T06:10:28.767Z,100274.44
2022-11-20T06:12:59.058Z,100273.88
2022-11-20T06:15:26.490Z,100256.19
2022-11-20T06:17:56.702Z,100263.44
2022-11-20T06:20:23.560Z,100267.94
2022-11-20T06:22:50.438Z,100280.56
2022-11-20T06:25:17.350Z,100274.97
2022-11-20T06:27:44.192Z,100268.38
2022-11-20T06:30:11.690Z,100275.69
2022-11-20T06:32:38.549Z,100270.59
2022-11-20T06:35:05.820Z,100273.72
2022-11-20T06:37:32.695Z,100281.44
2022-11-20T06:39:59.522Z,100280.56
2022-11-20T06:42:26.445Z,100288.97
2022-11-20T06:44:53.300Z,100270.16
2022-11-20T06:47:20.167Z,100273.47
2022-11-20T06:49:46.985Z,100275.06
2022-11-20T06:52:13.974Z,100280.59
2022-11-20T06:54:40.853Z,100279.41
2022-11-20T06:57:07.703Z,100285.44
2022-11-20T06:59:34.602Z,100272.88
2022-11-20T07:02:01.570Z,100277.25
2022-11-20T07:04:28.554Z,100282.00
2022-11-20T07:06:55.490Z,100282.69
2022-11-20T07:09:22.438Z,100273.13
2022-11-20T07:11:49.400Z,100277.47
2022-11-20T07:14:16.223Z,100274.50
2022-11-20T07:16:43.057Z,100276.22
2022-11-20T07:19:09.954Z,100289.16
2022-11-20T07:21:37.123Z,100282.34
2022-11-20T07:24:04.210Z,100272.81
2022-11-20T07:26:31.131Z,100277.19
2022-11-20T07:28:58.026Z,100291.13
2022-11-20T07:31:24.954Z,100288.16
2022-11-20T07:33:51.929Z,100285.47
2022-11-20T07:36:18.830Z,100281.50
2022-11-20T07:38:45.692Z,100280.00
2022-11-20T07:41:12.588Z,100278.22
2022-11-20T07:43:41.475Z,100277.09
2022-11-20T07:46:08.675Z,100278.84
2022-11-20T07:48:35.693Z,100275.44
2022-11-20T07:51:02.781Z,100271.97
2022-11-20T07:53:29.686Z,100270.00
2022-11-20T07:56:00.269Z,100271.03
2022-11-20T07:58:27.208Z,100274.28
2022-11-20T08:00:54.187Z,100279.38
2022-11-20T08:03:24.885Z,100277.06
2022-11-20T08:05:52.634Z,100280.25
2022-11-20T08:08:19.658Z,100280.28
2022-11-20T08:10:46.954Z,100273.34
2022-11-20T08:13:32.232Z,100281.66
2022-11-20T08:15:59.102Z,100287.88
2022-11-20T08:18:33.397Z,100278.66
2022-11-20T08:21:05.212Z,100285.69
2022-11-20T08:23:32.517Z,100284.44
2022-11-20T08:25:59.434Z,100280.44
2022-11-20T08:28:26.256Z,100288.03
2022-11-20T08:31:00.027Z,100294.78
2022-11-20T08:33:27.005Z,100291.41
2022-11-20T08:35:53.948Z,100295.03
2022-11-20T08:38:20.806Z,100281.63
2022-11-20T08:41:07.653Z,100282.34
2022-11-20T08:43:34.693Z,100277.81
2022-11-20T08:46:01.739Z,100274.44
2022-11-20T08:48:28.610Z,100269.16
2022-11-20T08:53:25.371Z,100275.84
2022-11-20T08:55:52.343Z,100272.59
2022-11-20T08:58:19.251Z,100262.16
2022-11-20T09:00:46.376Z,100266.66
2022-11-20T09:03:14.403Z,100265.53
2022-11-20T09:05:41.317Z,100259.03
2022-11-20T09:08:08.204Z,100273.38
2022-11-20T09:10:35.246Z,100254.53
2022-11-20T09:13:02.638Z,100262.34
2022-11-20T09:15:29.828Z,100257.25
2022-11-20T09:17:59.509Z,100258.47
2022-11-20T09:20:28.056Z,100257.09
2022-11-20T09:22:54.903Z,100258.97
2022-11-20T09:25:22.343Z,100250.16
2022-11-20T09:27:49.340Z,100260.59
2022-11-20T09:30:16.607Z,100255.72
2022-11-20T09:32:44.179Z,100250.72
2022-11-20T09:35:11.925Z,100256.28
2022-11-20T09:37:39.125Z,100255.63
2022-11-20T09:40:06.759Z,100243.59
2022-11-20T09:42:36.445Z,100238.53
2022-11-20T09:45:12.231Z,100242.13
2022-11-20T09:48:00.744Z,100240.34
2022-11-20T09:50:58.555Z,100238.78
2022-11-20T09:53:41.988Z,100228.13
2022-11-20T09:56:11.364Z,100225.81
2022-11-20T09:58:51.568Z,100223.16
2022-11-20T10:01:22.681Z,100222.78
2022-11-20T10:04:05.397Z,100217.78
2022-11-20T10:06:59.660Z,100220.66
2022-11-20T10:09:37.815Z,100221.81
2022-11-20T10:12:10.377Z,100212.53
2022-11-20T10:15:00.280Z,100202.06
2022-11-20T10:17:27.195Z,100201.69
2022-11-20T10:20:18.370Z,100190.94
2022-11-20T10:23:25.952Z,100176.56
2022-11-20T10:26:02.585Z,100167.78
2022-11-20T10:28:38.441Z,100186.28
2022-11-20T10:31:11.525Z,100183.09
2022-11-20T10:34:05.109Z,100184.03
2022-11-20T10:36:47.347Z,100173.69
2022-11-20T10:39:25.690Z,100169.88
2022-11-20T10:41:54.792Z,100178.63
2022-11-20T10:44:45.877Z,100175.81
2022-11-20T10:47:19.874Z,100172.09
2022-11-20T10:49:52.195Z,100175.25
2022-11-20T10:52:52.830Z,100171.91
2022-11-20T10:55:32.048Z,100166.34
2022-11-20T10:58:31.056Z,100162.53
2022-11-20T11:01:19.538Z,100163.16
2022-11-20T11:03:47.180Z,100169.88
2022-11-20T11:06:25.784Z,100167.94
2022-11-20T11:08:57.845Z,100167.41
2022-11-20T11:11:28.999Z,100155.66
2022-11-20T11:14:14.516Z,100150.88
2022-11-20T11:16:52.581Z,100158.09
2022-11-20T11:19:19.574Z,100168.75
2022-11-20T11:21:55.569Z,100168.31
2022-11-20T11:24:43.259Z,100162.63
2022-11-20T11:27:19.000Z,100165.69
2022-11-20T11:29:47.540Z,100170.28
2022-11-20T11:32:18.802Z,100175.50
2022-11-20T11:34:45.727Z,100183.81
2022-11-20T11:37:22.974Z,100177.22
2022-11-20T11:40:03.834Z,100177.66
2022-11-20T11:42:44.624Z,100181.38
2022-11-20T11:45:18.555Z,100187.84
2022-11-20T11:47:52.632Z,100195.91
2022-11-20T11:50:25.865Z,100192.22
2022-11-20T11:53:03.593Z,100195.63
2022-11-20T11:55:59.328Z,100187.41
2022-11-20T11:58:44.494Z,100190.81
2022-11-20T12:01:26.759Z,100197.66
2022-11-20T12:04:14.901Z,100195.34
2022-11-20T12:06:46.853Z,100199.28
2022-11-20T12:09:14.092Z,100207.56
2022-11-20T12:12:20.031Z,100196.94
2022-11-20T12:14:51.235Z,100200.91
2022-11-20T12:17:18.989Z,100200.00
2022-11-20T12:19:46.064Z,100194.31
2022-11-20T12:22:26.707Z,100194.31
2022-11-20T12:25:10.027Z,100182.44
2022-11-20T12:28:12.486Z,100186.13
2022-11-20T12:31:11.200Z,100179.94
2022-11-20T12:34:10.666Z,100176.19
2022-11-20T12:37:05.145Z,100175.56
2022-11-20T12:39:36.758Z,100177.38
2022-11-20T12:42:41.620Z,100175.44
2022-11-20T12:45:33.126Z,100180.09
2022-11-20T12:48:00.006Z,100170.41
2022-11-20T12:51:15.218Z,100187.22
2022-11-20T12:54:02.768Z,100196.88
2022-11-20T12:56:40.370Z,100192.13
2022-11-20T12:59:43.956Z,100193.09
2022-11-20T13:02:49.390Z,100186.97
2022-11-20T13:05:38.768Z,100191.22
2022-11-20T13:08:16.460Z,100188.28
2022-11-20T13:11:01.493Z,100186.50
2022-11-20T13:13:37.271Z,100170.00
2022-11-20T13:16:44.415Z,100179.06
2022-11-20T13:19:16.792Z,100172.28
2022-11-20T13:21:50.371Z,100169.25
2022-11-20T13:24:20.807Z,100174.84
2022-11-20T13:26:48.257Z,100176.69
2022-11-20T13:29:21.404Z,100179.22
2022-11-20T13:31:49.600Z,100166.59
2022-11-20T13:34:28.057Z,100176.44
2022-11-20T13:36:57.405Z,100181.50
2022-11-20T13:39:50.588Z,100179.84
2022-11-20T13:42:17.390Z,100175.00
2022-11-20T13:44:51.839Z,100177.69
2022-11-20T13:47:26.366Z,100185.13
2022-11-20T13:49:57.733Z,100192.00
2022-11-20T13:52:58.414Z,100186.22
2022-11-20T13:55:39.109Z,100184.22
2022-11-20T13:58:35.869Z,100172.50
2022-11-20T14:01:11.184Z,100175.56
2022-11-20T14:06:29.237Z,100176.47
2022-11-20T14:08:57.190Z,100177.34
2022-11-20T14:11:32.154Z,100171.13
2022-11-20T14:14:06.212Z,100177.94
2022-11-20T14:16:37.165Z,100184.78
2022-11-20T14:19:27.106Z,100188.72
2022-11-20T14:22:09.085Z,100187.00
2022-11-20T14:24:36.125Z,100170.44
2022-11-20T14:27:03.454Z,100175.94
2022-11-20T14:29:36.735Z,100173.88
2022-11-20T14:32:05.060Z,100169.81
2022-11-20T14:34:36.782Z,100167.34
2022-11-20T14:37:06.678Z,100174.06
2022-11-20T14:39:39.083Z,100170.44
2022-11-20T14:42:17.399Z,100170.84
2022-11-20T14:44:45.673Z,100176.03
2022-11-20T14:47:16.453Z,100176.72
2022-11-20T14:49:44.057Z,100169.81
2022-11-20T14:52:15.599Z,100164.91
2022-11-20T14:54:56.407Z,100160.41
2022-11-20T14:57:31.267Z,100158.69
2022-11-20T15:00:24.943Z,100154.78
2022-11-20T15:02:53.570Z,100158.16
2022-11-20T15:05:23.730Z,100150.34
2022-11-20T15:08:09.392Z,100148.41
2022-11-20T15:10:36.723Z,100144.84
2022-11-20T15:13:13.917Z,100137.22
2022-11-20T15:15:45.860Z,100133.97
2022-11-20T15:18:16.107Z,100139.47
2022-11-20T15:20:44.288Z,100130.06
2022-11-20T15:23:18.885Z,100136.75
2022-11-20T15:25:46.973Z,100134.63
2022-11-20T15:28:31.630Z,100136.84
2022-11-20T15:30:58.947Z,100140.22
2022-11-20T15:33:25.942Z,100138.84
2022-11-20T15:35:53.014Z,100127.09
2022-11-20T15:38:19.994Z,100130.47
2022-11-20T15:40:47.121Z,100136.25
2022-11-20T15:43:14.207Z,100125.66
2022-11-20T15:45:41.098Z,100122.50
2022-11-20T15:48:15.023Z,100121.16
2022-11-20T15:51:08.118Z,100118.66
2022-11-20T15:53:35.007Z,100122.44
2022-11-20T15:56:02.462Z,100122.06
2022-11-20T15:58:29.455Z,100125.38
2022-11-20T16:00:57.300Z,100124.81
2022-11-20T16:03:24.252Z,100123.81
2022-11-20T16:05:51.144Z,100122.97
2022-11-20T16:08:18.018Z,100120.06
2022-11-20T16:10:45.137Z,100121.16
2022-11-20T16:13:35.747Z,100127.78
2022-11-20T16:16:06.548Z,100114.66
2022-11-20T16:18:33.839Z,100118.06
2022-11-20T16:21:00.994Z,100116.25
2022-11-20T16:23:27.920Z,100116.50
2022-11-20T16:25:54.933Z,100125.41
2022-11-20T16:28:21.962Z,100130.72
2022-11-20T16:30:48.879Z,100131.34
2022-11-20T16:33:18.313Z,100141.13
2022-11-20T16:35:45.303Z,100134.09
2022-11-20T16:38:12.216Z,100135.56
2022-11-20T16:40:39.157Z,100144.56
2022-11-20T16:43:11.489Z,100145.53
2022-11-20T16:45:45.462Z,100149.81
2022-11-20T16:48:13.449Z,100153.69
2022-11-20T16:50:54.509Z,100144.50
2022-11-20T16:53:22.830Z,100153.31
2022-11-20T16:55:49.671Z,100141.75
2022-11-20T16:58:16.866Z,100136.50
2022-11-20T17:00:49.965Z,100142.41
2022-11-20T17:03:19.071Z,100135.72
2022-11-20T17:05:46.129Z,100136.09
2022-11-20T17:08:13.028Z,100131.94
2022-11-20T17:10:39.899Z,100141.59
2022-11-20T17:13:06.823Z,100145.34
2022-11-20T17:15:33.991Z,100153.66
2022-11-20T17:18:03.727Z,100152.25
2022-11-20T17:20:31.082Z,100157.63
2022-11-20T17:22:57.993Z,100147.81
2022-11-20T17:25:24.878Z,100150.72
2022-11-20T17:27:51.762Z,100151.91
2022-11-20T17:30:18.691Z,100153.97
2022-11-20T17:32:46.987Z,100158.66
2022-11-20T17:35:14.165Z,100156.47
2022-11-20T17:37:41.111Z,100160.66
2022-11-20T17:40:08.133Z,100158.69
2022-11-20T17:42:37.017Z,100179.03
2022-11-20T17:45:05.138Z,100186.69
2022-11-20T17:47:32.085Z,100193.00
2022-11-20T17:49:59.002Z,100210.84
2022-11-20T17:52:25.978Z,100202.47
2022-11-20T17:54:56.064Z,100210.16
2022-11-20T17:57:42.467Z,100193.47
2022-11-20T18:00:11.152Z,100194.69
2022-11-20T18:02:38.038Z,100207.25
2022-11-20T18:05:05.382Z,100194.06
2022-11-20T18:07:34.761Z,100211.63
2022-11-20T18:10:05.185Z,100226.91
2022-11-20T18:12:32.075Z,100239.84
2022-11-20T18:14:59.034Z,100223.47
2022-11-20T18:17:25.920Z,100246.47
2022-11-20T18:20:14.050Z,100289.13
2022-11-20T18:22:40.712Z,100277.13
2022-11-20T18:25:07.950Z,100274.47
2022-11-20T18:27:35.277Z,100249.66
2022-11-20T18:30:02.376Z,100255.28
2022-11-20T18:32:29.245Z,100233.13
2022-11-20T18:34:56.139Z,100238.09
2022-11-20T18:37:23.078Z,100231.78
2022-11-20T18:39:50.529Z,100231.28
2022-11-20T18:42:36.146Z,100238.16
2022-11-20T18:45:04.520Z,100239.94
2022-11-20T18:47:37.979Z,100243.44
2022-11-20T18:50:07.433Z,100242.34
2022-11-20T18:52:38.995Z,100247.50
2022-11-20T18:55:06.955Z,100266.75
2022-11-20T18:57:34.242Z,100268.78
2022-11-20T19:00:07.944Z,100258.91
2022-11-20T19:02:41.193Z,100267.59
2022-11-20T19:05:12.770Z,100261.03
2022-11-20T19:07:39.795Z,100287.13
2022-11-20T19:10:07.573Z,100308.44
2022-11-20T19:12:35.242Z,100315.34
2022-11-20T19:15:02.133Z,100280.91
2022-11-20T19:17:29.072Z,100270.75
2022-11-20T19:19:56.025Z,100263.63
2022-11-20T19:22:23.226Z,100262.44
2022-11-20T19:24:50.182Z,100255.25
2022-11-20T19:27:17.103Z,100261.06
2022-11-20T19:29:44.150Z,100242.88
2022-11-20T19:32:11.488Z,100237.56
2022-11-20T19:34:38.396Z,100223.63
2022-11-20T19:37:05.562Z,100229.53
2022-11-20T19:39:32.552Z,100234.47
2022-11-20T19:41:59.532Z,100243.88
2022-11-20T19:44:26.400Z,100248.25
2022-11-20T19:46:53.885Z,100232.75
2022-11-20T19:49:21.374Z,100228.28
2022-11-20T19:51:51.055Z,100223.66
2022-11-20T19:54:18.035Z,100231.81
2022-11-20T19:56:46.698Z,100231.66
2022-11-20T19:59:14.266Z,100229.47
2022-11-20T20:01:41.362Z,100232.56
2022-11-20T20:04:08.328Z,100245.72
2022-11-20T20:06:38.390Z,100250.50
2022-11-20T20:09:12.038Z,100252.47
2022-11-20T20:11:40.176Z,100250.03
2022-11-20T20:14:10.867Z,100245.88
2022-11-20T20:16:37.744Z,100235.22
2022-11-20T20:19:05.678Z,100243.97
2022-11-20T20:21:35.089Z,100243.28
2022-11-20T20:24:02.723Z,100244.28
2022-11-20T20:26:32.240Z,100255.09
2022-11-20T20:29:00.994Z,100247.41
2022-11-20T20:31:30.173Z,100250.75
2022-11-20T20:33:57.262Z,100244.53
2022-11-20T20:36:24.776Z,100241.09
2022-11-20T20:38:56.525Z,100255.78
2022-11-20T20:41:25.131Z,100242.34
2022-11-20T20:44:11.287Z,100230.63
2022-11-20T20:46:39.171Z,100232.19
2022-11-20T20:49:07.430Z,100214.97
2022-11-20T20:51:35.008Z,100212.44
2022-11-20T20:54:02.334Z,100219.84
2022-11-20T20:56:29.191Z,100227.63
2022-11-20T20:58:56.102Z,100234.38
2022-11-20T21:01:23.619Z,100217.41
2022-11-20T21:03:50.593Z,100218.81
2022-11-20T21:06:17.538Z,100212.00
2022-11-20T21:08:44.859Z,100198.38
2022-11-20T21:11:14.505Z,100208.88
2022-11-20T21:13:43.465Z,100211.38
2022-11-20T21:16:11.856Z,100219.63
2022-11-20T21:18:39.002Z,100224.28
2022-11-20T21:21:26.486Z,100220.81
2022-11-20T21:23:53.969Z,100219.31
2022-11-20T21:26:21.570Z,100217.03
2022-11-20T21:28:50.072Z,100223.53
2022-11-20T21:31:22.016Z,100217.56
2022-11-20T21:33:50.865Z,100238.09
2022-11-20T21:36:22.138Z,100214.69
2022-11-20T21:38:51.830Z,100205.63
2022-11-20T21:41:18.831Z,100217.31
2022-11-20T21:43:51.526Z,100201.28
2022-11-20T21:46:26.458Z,100189.06
2022-11-20T21:48:53.468Z,100171.88
2022-11-20T21:51:22.820Z,100203.41
2022-11-20T21:53:51.342Z,100215.41
2022-11-20T21:56:20.866Z,100204.81
2022-11-20T21:58:49.007Z,100185.63
2022-11-20T22:01:30.146Z,100187.28
2022-11-20T22:04:02.222Z,100194.16
2022-11-20T22:06:33.879Z,100179.53
2022-11-20T22:09:01.949Z,100187.13
2022-11-20T22:11:28.951Z,100186.47
2022-11-20T22:14:14.262Z,100171.66
2022-11-20T22:16:41.163Z,100177.59
2022-11-20T22:19:08.311Z,100181.38
2022-11-20T22:21:35.353Z,100176.81
2022-11-20T22:24:02.633Z,100160.88
2022-11-20T22:26:36.158Z,100161.28
2022-11-20T22:29:06.749Z,100171.69
2022-11-20T22:31:33.659Z,100163.16
2022-11-20T22:34:02.701Z,100163.47
2022-11-20T22:36:31.255Z,100171.25
2022-11-20T22:38:58.932Z,100169.63
2022-11-20T22:41:29.215Z,100173.94
2022-11-20T22:44:02.684Z,100172.94
2022-11-20T22:46:33.068Z,100165.81
2022-11-20T22:49:02.902Z,100178.44
2022-11-20T22:51:32.331Z,100175.69
2022-11-20T22:53:59.844Z,100164.66
2022-11-20T22:56:27.195Z,100153.84
2022-11-20T22:58:54.603Z,100157.78
2022-11-20T23:01:26.909Z,100154.78
2022-11-20T23:03:58.960Z,100138.06
2022-11-20T23:06:26.684Z,100132.19
2022-11-20T23:08:54.084Z,100122.47
2022-11-20T23:11:26.003Z,100123.00
2022-11-20T23:13:59.048Z,100110.19
2022-11-20T23:16:28.759Z,100109.94
2022-11-20T23:19:01.485Z,100082.03
2022-11-20T23:21:28.771Z,100082.50
2022-11-20T23:23:57.591Z,100078.03
2022-11-20T23:26:29.905Z,100093.16
2022-11-20T23:28:58.639Z,100088.31
2022-11-20T23:31:27.559Z,100082.31
2022-11-20T23:33:54.693Z,100074.31
2022-11-20T23:36:21.628Z,100058.72
2022-11-20T23:38:48.457Z,100058.78
2022-11-20T23:41:15.516Z,100056.31
2022-11-20T23:43:42.488Z,100050.50
2022-11-20T23:46:12.651Z,100042.84
2022-11-20T23:48:45.200Z,100045.50
2022-11-20T23:51:12.940Z,100034.06
2022-11-20T23:53:40.114Z,100035.44
2022-11-20T23:56:07.401Z,100033.34
2022-11-20T23:58:36.897Z,100026.31
